createdAt,value
2017-08-23T00:04:11.066Z,18.60
2017-08-23T00:06:39.398Z,18.50
2017-08-23T00:09:07.678Z,18.50
2017-08-23T00:14:05.524Z,18.40
2017-08-23T00:16:33.819Z,18.40
2017-08-23T00:19:03.626Z,18.30
2017-08-23T00:21:32.008Z,18.30
2017-08-23T00:24:00.278Z,18.30
2017-08-23T00:26:28.558Z,18.30
2017-08-23T00:28:56.910Z,18.30
2017-08-23T00:31:25.195Z,18.30
2017-08-23T00:41:22.083Z,18.20
2017-08-23T00:43:50.831Z,18.20
2017-08-23T00:46:19.114Z,18.10
2017-08-23T00:48:47.414Z,18.10
2017-08-23T00:51:15.793Z,18.10
2017-08-23T00:53:45.643Z,18.10
2017-08-23T00:56:13.943Z,18.00
2017-08-23T00:58:42.283Z,18.00
2017-08-23T01:01:10.576Z,18.00
2017-08-23T01:03:38.862Z,17.90
2017-08-23T01:06:07.991Z,18.00
2017-08-23T01:08:36.279Z,17.90
2017-08-23T01:11:04.558Z,17.90
2017-08-23T01:13:32.913Z,17.90
2017-08-23T01:16:01.199Z,17.90
2017-08-23T01:18:30.247Z,17.90
2017-08-23T01:23:29.599Z,17.80
2017-08-23T01:25:58.642Z,17.80
2017-08-23T01:28:27.370Z,17.80
2017-08-23T01:33:25.183Z,17.70
2017-08-23T01:35:53.544Z,17.70
2017-08-23T01:38:21.827Z,17.70
2017-08-23T01:40:50.105Z,17.70
2017-08-23T01:43:18.465Z,17.60
2017-08-23T01:45:46.776Z,17.60
2017-08-23T01:48:15.839Z,17.60
2017-08-23T01:50:44.220Z,17.60
2017-08-23T01:53:12.509Z,17.60
2017-08-23T01:55:40.794Z,17.60
2017-08-23T02:00:40.143Z,17.60
2017-08-23T02:05:39.543Z,17.60
2017-08-23T02:08:08.599Z,17.60
2017-08-23T02:10:36.907Z,17.60
2017-08-23T02:13:05.250Z,17.50
2017-08-23T02:15:33.546Z,17.60
2017-08-23T02:18:03.382Z,17.50
2017-08-23T02:20:31.707Z,17.60
2017-08-23T02:22:59.998Z,17.50
2017-08-23T02:25:28.323Z,17.50
2017-08-23T02:27:57.774Z,17.50
2017-08-23T02:32:56.371Z,17.60
2017-08-23T02:35:24.686Z,17.60
2017-08-23T02:37:52.975Z,17.60
2017-08-23T02:42:51.267Z,17.70
2017-08-23T02:45:20.310Z,17.70
2017-08-23T02:47:49.758Z,17.70
2017-08-23T02:50:18.473Z,17.70
2017-08-23T02:52:46.782Z,17.70
2017-08-23T02:55:15.119Z,17.70
2017-08-23T02:57:43.452Z,17.70
2017-08-23T03:00:13.770Z,17.70
2017-08-23T03:05:11.706Z,17.60
2017-08-23T03:07:39.990Z,17.60
2017-08-23T03:10:09.174Z,17.60
2017-08-23T03:12:37.911Z,17.50
2017-08-23T03:15:06.202Z,17.50
2017-08-23T03:20:04.459Z,17.50
2017-08-23T03:22:32.751Z,17.40
2017-08-23T03:25:01.039Z,17.40
2017-08-23T03:30:00.403Z,17.40
2017-08-23T03:32:28.692Z,17.40
2017-08-23T03:34:57.034Z,17.30
2017-08-23T03:37:26.822Z,17.30
2017-08-23T03:39:55.103Z,17.30
2017-08-23T03:42:23.451Z,17.30
2017-08-23T03:44:52.872Z,17.20
2017-08-23T03:47:21.155Z,17.10
2017-08-23T03:49:49.495Z,17.10
2017-08-23T03:52:17.800Z,17.10
2017-08-23T03:57:16.090Z,17.10
2017-08-23T03:59:44.382Z,17.00
2017-08-23T04:02:12.662Z,17.00
2017-08-23T04:09:41.054Z,17.00
2017-08-23T04:12:09.378Z,17.00
2017-08-23T04:14:38.427Z,17.00
2017-08-23T04:17:06.712Z,17.00
2017-08-23T04:19:35.063Z,17.00
2017-08-23T04:22:03.361Z,16.90
2017-08-23T04:24:32.790Z,16.90
2017-08-23T04:27:01.157Z,16.90
2017-08-23T04:29:29.437Z,16.90
2017-08-23T04:31:57.714Z,16.80
2017-08-23T04:34:27.570Z,16.80
2017-08-23T04:36:55.859Z,16.80
2017-08-23T04:39:24.138Z,16.80
2017-08-23T04:44:22.407Z,16.80
2017-08-23T04:46:50.690Z,16.80
2017-08-23T04:49:19.786Z,16.80
2017-08-23T04:51:48.086Z,16.80
2017-08-23T04:54:16.379Z,16.80
2017-08-23T04:56:46.271Z,16.80
2017-08-23T04:59:14.562Z,16.80
2017-08-23T05:01:42.854Z,16.70
2017-08-23T05:04:11.258Z,16.70
2017-08-23T05:06:39.547Z,16.70
2017-08-23T05:09:08.966Z,16.70
2017-08-23T05:11:37.315Z,16.70
2017-08-23T05:14:05.613Z,16.70
2017-08-23T05:16:35.406Z,16.70
2017-08-23T05:19:03.746Z,16.70
2017-08-23T05:21:32.035Z,16.70
2017-08-23T05:26:30.758Z,16.80
2017-08-23T05:29:00.559Z,16.90
2017-08-23T05:31:30.027Z,17.00
2017-08-23T05:33:59.867Z,17.00
2017-08-23T05:36:28.147Z,17.00
2017-08-23T05:41:26.430Z,17.00
2017-08-23T05:43:54.725Z,17.00
2017-08-23T05:46:23.051Z,17.00
2017-08-23T05:48:51.421Z,17.00
2017-08-23T05:53:49.346Z,17.10
2017-08-23T05:56:19.247Z,17.10
2017-08-23T05:58:47.547Z,17.10
2017-08-23T06:01:15.935Z,17.20
2017-08-23T06:03:44.427Z,17.20
2017-08-23T06:06:14.285Z,17.30
2017-08-23T06:11:12.543Z,17.40
2017-08-23T06:13:40.834Z,17.50
2017-08-23T06:16:09.918Z,17.50
2017-08-23T06:18:38.236Z,17.60
2017-08-23T06:21:06.529Z,17.70
2017-08-23T06:23:36.374Z,17.70
2017-08-23T06:26:06.209Z,17.80
2017-08-23T06:28:34.499Z,17.90
2017-08-23T06:31:02.824Z,17.90
2017-08-23T06:33:32.651Z,18.00
2017-08-23T06:36:00.931Z,18.10
2017-08-23T06:38:29.246Z,18.20
2017-08-23T06:40:57.584Z,18.30
2017-08-23T06:45:55.782Z,18.50
2017-08-23T06:48:24.114Z,18.60
2017-08-23T06:50:52.412Z,18.70
2017-08-23T06:53:21.520Z,18.80
2017-08-23T06:55:49.861Z,18.90
2017-08-23T06:58:19.674Z,19.00
2017-08-23T07:00:48.014Z,19.20
2017-08-23T07:03:16.369Z,19.40
2017-08-23T07:05:44.711Z,19.50
2017-08-23T07:08:13.048Z,19.70
2017-08-23T07:10:42.903Z,19.80
2017-08-23T07:13:11.192Z,19.90
2017-08-23T07:15:39.505Z,20.10
2017-08-23T07:18:08.951Z,20.30
2017-08-23T07:20:37.632Z,20.50
2017-08-23T07:23:05.942Z,20.60
2017-08-23T07:25:35.423Z,20.70
2017-08-23T07:28:03.712Z,20.80
2017-08-23T07:30:32.044Z,20.90
2017-08-23T07:35:31.384Z,21.30
2017-08-23T07:37:59.704Z,21.40
2017-08-23T07:40:29.548Z,21.60
2017-08-23T07:42:57.825Z,21.60
2017-08-23T07:45:26.135Z,21.70
2017-08-23T07:47:54.459Z,21.60
2017-08-23T07:50:23.879Z,21.70
2017-08-23T07:52:52.212Z,21.90
2017-08-23T07:55:20.547Z,22.00
2017-08-23T07:57:48.871Z,22.10
2017-08-23T08:00:17.194Z,22.30
2017-08-23T08:05:15.071Z,22.70
2017-08-23T08:07:43.391Z,22.80
2017-08-23T08:10:11.743Z,23.00
2017-08-23T08:12:42.043Z,23.00
2017-08-23T08:15:11.130Z,23.10
2017-08-23T08:17:39.438Z,23.20
2017-08-23T08:20:08.159Z,23.30
2017-08-23T08:22:37.602Z,23.40
2017-08-23T08:25:05.939Z,23.50
2017-08-23T08:27:34.263Z,23.60
2017-08-23T08:30:02.568Z,23.90
2017-08-23T08:32:32.026Z,24.00
2017-08-23T08:37:30.243Z,24.20
2017-08-23T08:39:59.335Z,24.10
2017-08-23T08:42:28.757Z,24.20
2017-08-23T08:44:57.054Z,24.30
2017-08-23T08:47:25.371Z,24.40
2017-08-23T08:49:53.659Z,24.40
2017-08-23T08:52:21.986Z,24.40
2017-08-23T08:54:51.858Z,24.40
2017-08-23T08:57:20.150Z,24.60
2017-08-23T08:59:49.245Z,24.60
2017-08-23T09:02:17.593Z,24.90
2017-08-23T09:04:45.914Z,25.00
2017-08-23T09:07:15.797Z,25.30
2017-08-23T09:09:44.156Z,25.50
2017-08-23T09:12:12.442Z,25.70
2017-08-23T09:14:40.811Z,26.00
2017-08-23T09:17:09.907Z,26.10
2017-08-23T09:19:38.178Z,26.30
2017-08-23T09:22:07.268Z,26.40
2017-08-23T09:24:36.735Z,26.50
2017-08-23T09:29:35.345Z,27.00
2017-08-23T09:32:03.655Z,27.20
2017-08-23T09:34:32.706Z,27.40
2017-08-23T09:37:01.791Z,27.60
2017-08-23T09:42:00.381Z,27.70
2017-08-23T09:44:29.084Z,27.70
2017-08-23T09:46:57.402Z,27.80
2017-08-23T09:51:55.608Z,27.80
2017-08-23T09:54:23.919Z,27.80
2017-08-23T09:56:52.215Z,27.90
2017-08-23T09:59:20.583Z,28.10
2017-08-23T10:01:48.973Z,28.10
2017-08-23T10:06:20.678Z,28.00
2017-08-23T10:08:49.030Z,28.00
2017-08-23T10:11:17.306Z,28.20
2017-08-23T10:13:47.123Z,28.30
2017-08-23T10:18:45.724Z,28.50
2017-08-23T10:21:14.760Z,28.50
2017-08-23T10:23:43.106Z,28.70
2017-08-23T10:26:11.370Z,28.50
2017-08-23T10:28:39.643Z,28.40
2017-08-23T10:33:37.491Z,28.50
2017-08-23T10:36:05.789Z,28.30
2017-08-23T10:38:34.131Z,28.10
2017-08-23T10:43:32.694Z,28.00
2017-08-23T10:46:01.019Z,28.10
2017-08-23T10:48:30.435Z,28.30
2017-08-23T10:50:58.711Z,28.50
2017-08-23T10:53:27.030Z,28.70
2017-08-23T10:58:25.571Z,28.90
2017-08-23T11:00:53.911Z,29.00
2017-08-23T11:03:22.964Z,29.20
2017-08-23T11:05:52.755Z,29.20
2017-08-23T11:08:21.116Z,29.10
2017-08-23T11:10:49.390Z,29.00
2017-08-23T11:13:17.662Z,28.90
2017-08-23T11:15:46.003Z,28.80
2017-08-23T11:18:15.414Z,28.90
2017-08-23T11:20:43.707Z,29.10
2017-08-23T11:23:13.538Z,29.40
2017-08-23T11:25:41.810Z,29.50
2017-08-23T11:28:10.084Z,29.60
2017-08-23T11:30:38.431Z,29.50
2017-08-23T11:33:06.723Z,29.60
2017-08-23T11:35:35.006Z,29.60
2017-08-23T11:38:03.364Z,29.60
2017-08-23T11:40:33.181Z,29.60
2017-08-23T11:43:01.451Z,29.40
2017-08-23T11:45:30.554Z,29.30
2017-08-23T11:50:29.098Z,29.10
2017-08-23T11:52:57.414Z,29.10
2017-08-23T11:55:27.035Z,29.10
2017-08-23T11:57:55.309Z,29.10
2017-08-23T12:00:23.639Z,29.10
2017-08-23T12:02:51.909Z,29.20
2017-08-23T12:05:20.199Z,29.40
2017-08-23T12:07:48.580Z,29.60
2017-08-23T12:10:17.986Z,29.60
2017-08-23T12:12:46.270Z,29.60
2017-08-23T12:15:15.020Z,29.60
2017-08-23T12:17:44.804Z,29.60
2017-08-23T12:20:13.083Z,29.70
2017-08-23T12:25:11.363Z,29.60
2017-08-23T12:30:16.591Z,29.40
2017-08-23T12:32:44.858Z,29.60
2017-08-23T12:35:13.147Z,29.60
2017-08-23T12:37:41.455Z,29.70
2017-08-23T12:40:09.727Z,29.70
2017-08-23T12:42:38.014Z,29.80
2017-08-23T12:45:06.362Z,29.90
2017-08-23T12:47:35.419Z,29.90
2017-08-23T12:50:03.707Z,29.70
2017-08-23T12:52:32.078Z,29.70
2017-08-23T12:55:00.367Z,29.70
2017-08-23T12:57:28.642Z,29.80
2017-08-23T12:59:56.966Z,29.90
2017-08-23T13:02:26.748Z,30.00
2017-08-23T13:07:25.350Z,30.20
2017-08-23T13:09:54.411Z,30.20
2017-08-23T13:12:22.687Z,30.30
2017-08-23T13:14:51.018Z,30.30
2017-08-23T13:17:19.300Z,30.20
2017-08-23T13:19:48.714Z,29.90
2017-08-23T13:24:46.951Z,29.60
2017-08-23T13:27:15.620Z,29.50
2017-08-23T13:29:43.975Z,29.30
2017-08-23T13:32:12.242Z,29.20
2017-08-23T13:34:40.518Z,29.20
2017-08-23T13:37:10.342Z,29.30
2017-08-23T13:39:38.631Z,29.30
2017-08-23T13:42:06.931Z,29.20
2017-08-23T13:49:34.310Z,28.90
2017-08-23T13:54:32.570Z,28.90
2017-08-23T13:57:00.838Z,29.00
2017-08-23T13:59:29.183Z,29.00
2017-08-23T14:01:57.442Z,29.00
2017-08-23T14:04:25.719Z,29.10
2017-08-23T14:06:55.175Z,29.00
2017-08-23T14:09:23.463Z,29.00
2017-08-23T14:11:51.758Z,29.00
2017-08-23T14:14:21.606Z,29.10
2017-08-23T14:16:49.883Z,28.90
2017-08-23T14:21:48.489Z,28.70
2017-08-23T14:24:16.758Z,28.70
2017-08-23T14:26:45.801Z,28.60
2017-08-23T14:29:14.132Z,28.50
2017-08-23T14:31:42.408Z,28.40
2017-08-23T14:34:12.195Z,28.30
2017-08-23T14:36:40.522Z,28.30
2017-08-23T14:39:08.799Z,28.30
2017-08-23T14:41:37.102Z,28.30
2017-08-23T14:44:05.450Z,28.30
2017-08-23T14:46:34.889Z,28.30
2017-08-23T14:49:03.191Z,28.30
2017-08-23T14:51:31.955Z,28.30
2017-08-23T14:54:01.367Z,28.20
2017-08-23T14:56:29.646Z,28.20
2017-08-23T14:58:57.986Z,28.20
2017-08-23T15:01:26.256Z,28.20
2017-08-23T15:03:54.531Z,28.20
2017-08-23T15:06:22.875Z,28.10
2017-08-23T15:08:52.672Z,28.10
2017-08-23T15:11:20.944Z,27.90
2017-08-23T15:13:50.063Z,27.90
2017-08-23T15:16:18.334Z,27.90
2017-08-23T15:18:46.607Z,27.90
2017-08-23T15:21:14.942Z,27.90
2017-08-23T15:23:43.213Z,27.90
2017-08-23T15:26:12.631Z,27.80
2017-08-23T15:28:41.355Z,27.80
2017-08-23T15:31:09.633Z,27.90
2017-08-23T15:33:37.927Z,27.90
2017-08-23T15:36:06.283Z,27.80
2017-08-23T15:38:35.730Z,27.80
2017-08-23T15:41:04.027Z,27.90
2017-08-23T15:43:33.892Z,27.90
2017-08-23T15:46:03.318Z,27.90
2017-08-23T15:48:32.376Z,27.90
2017-08-23T15:51:00.719Z,27.90
2017-08-23T15:53:29.760Z,27.90
2017-08-23T15:55:58.031Z,27.90
2017-08-23T15:58:26.355Z,27.80
2017-08-23T16:00:56.131Z,27.80
2017-08-23T16:05:54.375Z,27.80
2017-08-23T16:08:22.670Z,27.80
2017-08-23T16:13:20.898Z,27.70
2017-08-23T16:15:49.174Z,27.70
2017-08-23T16:18:17.442Z,27.70
2017-08-23T16:23:15.672Z,27.70
2017-08-23T16:25:43.939Z,27.70
2017-08-23T16:28:12.278Z,27.70
2017-08-23T16:33:11.550Z,27.70
2017-08-23T16:35:39.871Z,27.70
2017-08-23T16:38:08.162Z,27.70
2017-08-23T16:43:06.027Z,27.60
2017-08-23T16:45:34.319Z,27.60
2017-08-23T16:50:32.174Z,27.50
2017-08-23T16:53:00.439Z,27.40
2017-08-23T16:55:28.715Z,27.40
2017-08-23T16:57:57.047Z,27.40
2017-08-23T17:00:25.323Z,27.50
2017-08-23T17:02:53.610Z,27.40
2017-08-23T17:05:21.962Z,27.40
2017-08-23T17:07:51.764Z,27.50
2017-08-23T17:10:20.032Z,27.40
2017-08-23T17:12:48.352Z,27.40
2017-08-23T17:15:17.389Z,27.50
2017-08-23T17:17:45.663Z,27.40
2017-08-23T17:20:14.000Z,27.50
2017-08-23T17:22:42.286Z,27.30
2017-08-23T17:25:12.075Z,27.30
2017-08-23T17:27:40.400Z,27.30
2017-08-23T17:30:09.548Z,27.30
2017-08-23T17:32:38.239Z,27.20
2017-08-23T17:35:06.660Z,27.20
2017-08-23T17:37:36.468Z,27.10
2017-08-23T17:45:05.387Z,27.10
2017-08-23T17:47:33.675Z,27.00
2017-08-23T17:50:02.004Z,27.00
2017-08-23T17:52:31.054Z,27.00
2017-08-23T17:57:29.298Z,26.90
2017-08-23T17:59:57.567Z,26.90
2017-08-23T18:02:25.851Z,26.80
2017-08-23T18:04:54.166Z,26.80
2017-08-23T18:09:51.931Z,26.80
2017-08-23T18:12:20.251Z,26.70
2017-08-23T18:14:48.920Z,26.70
2017-08-23T18:17:18.331Z,26.60
2017-08-23T18:19:46.678Z,26.50
2017-08-23T18:22:14.943Z,26.50
2017-08-23T18:24:43.219Z,26.50
2017-08-23T18:27:11.554Z,26.40
2017-08-23T18:29:39.846Z,26.40
2017-08-23T18:34:38.119Z,26.40
2017-08-23T18:37:07.163Z,26.40
2017-08-23T18:39:35.479Z,26.40
2017-08-23T18:42:05.452Z,26.40
2017-08-23T18:44:34.755Z,26.30
2017-08-23T18:47:03.490Z,26.20
2017-08-23T18:52:01.779Z,26.20
2017-08-23T18:54:30.050Z,26.20
2017-08-23T18:56:58.396Z,26.10
2017-08-23T18:59:26.666Z,26.10
2017-08-23T19:01:54.949Z,26.10
2017-08-23T19:04:24.790Z,26.00
2017-08-23T19:06:53.068Z,26.00
2017-08-23T19:09:21.350Z,26.00
2017-08-23T19:16:49.835Z,25.90
2017-08-23T19:21:49.155Z,25.80
2017-08-23T19:24:17.441Z,25.90
2017-08-23T19:26:45.758Z,25.80
2017-08-23T19:29:15.539Z,25.80
2017-08-23T19:31:43.812Z,25.70
2017-08-23T19:34:12.143Z,25.70
2017-08-23T19:36:40.443Z,25.60
2017-08-23T19:39:08.731Z,25.60
2017-08-23T19:41:37.079Z,25.60
2017-08-23T19:44:05.358Z,25.50
2017-08-23T19:49:25.494Z,25.50
2017-08-23T19:51:55.275Z,25.50
2017-08-23T19:54:23.555Z,25.50
2017-08-23T19:59:21.785Z,25.40
2017-08-23T20:04:21.115Z,25.30
2017-08-23T20:06:49.391Z,25.30
2017-08-23T20:09:17.662Z,25.20
2017-08-23T20:11:47.514Z,25.20
2017-08-23T20:14:15.791Z,25.20
2017-08-23T20:16:44.076Z,25.20
2017-08-23T20:19:12.415Z,25.20
2017-08-23T20:21:40.687Z,25.20
2017-08-23T20:24:10.099Z,25.20
2017-08-23T20:26:38.444Z,25.20
2017-08-23T20:29:06.759Z,25.20
2017-08-23T20:31:35.054Z,25.20
2017-08-23T20:34:04.042Z,25.20
2017-08-23T20:36:32.328Z,25.20
2017-08-23T20:39:01.378Z,25.20
2017-08-23T20:41:29.746Z,25.10
2017-08-23T20:43:58.799Z,25.20
2017-08-23T20:48:57.051Z,25.20
2017-08-23T20:51:25.327Z,25.10
2017-08-23T20:56:23.559Z,25.10
2017-08-23T20:58:51.844Z,25.00
2017-08-23T21:01:20.123Z,25.00
2017-08-23T21:03:48.450Z,25.00
2017-08-23T21:06:17.862Z,24.90
2017-08-23T21:11:47.062Z,24.90
2017-08-23T21:14:16.848Z,24.90
2017-08-23T21:16:45.143Z,24.90
2017-08-23T21:19:13.514Z,24.90
2017-08-23T21:24:11.687Z,24.80
2017-08-23T21:26:40.799Z,24.80
2017-08-23T21:29:09.075Z,24.80
2017-08-23T21:34:07.304Z,24.80
2017-08-23T21:39:05.112Z,24.70
2017-08-23T21:44:03.446Z,24.60
2017-08-23T21:46:32.122Z,24.70
2017-08-23T21:49:00.462Z,24.70
2017-08-23T21:51:28.733Z,24.60
2017-08-23T21:53:57.002Z,24.60
2017-08-23T21:56:26.885Z,24.60
2017-08-23T22:01:25.058Z,24.60
2017-08-23T22:03:53.407Z,24.60
2017-08-23T22:06:22.471Z,24.40
2017-08-23T22:08:50.742Z,24.40
2017-08-23T22:11:19.063Z,24.40
2017-08-23T22:13:47.330Z,24.40
2017-08-23T22:16:15.630Z,24.30
2017-08-23T22:18:43.975Z,24.20
2017-08-23T22:21:13.750Z,24.10
2017-08-23T22:23:43.154Z,24.00
2017-08-23T22:26:11.538Z,23.90
2017-08-23T22:31:10.083Z,23.70
2017-08-23T22:33:38.439Z,23.80
2017-08-23T22:36:06.726Z,23.80
2017-08-23T22:41:08.071Z,23.70
2017-08-23T22:43:37.130Z,23.60
2017-08-23T22:46:05.477Z,23.60
2017-08-23T22:48:34.586Z,23.50
2017-08-23T22:51:02.874Z,23.50
2017-08-23T22:53:32.978Z,23.40
2017-08-23T22:58:30.859Z,23.30
2017-08-23T23:00:59.143Z,23.30
2017-08-23T23:03:27.487Z,23.20
2017-08-23T23:05:55.772Z,23.10
2017-08-23T23:08:24.074Z,23.00
2017-08-23T23:10:52.438Z,23.00
2017-08-23T23:13:21.865Z,23.00
2017-08-23T23:15:50.537Z,23.00
2017-08-23T23:18:18.874Z,23.00
2017-08-23T23:20:48.662Z,23.00
2017-08-23T23:23:16.946Z,23.00
2017-08-23T23:25:46.051Z,23.00
2017-08-23T23:28:14.330Z,23.00
2017-08-23T23:33:12.588Z,22.90
2017-08-23T23:35:40.870Z,23.00
2017-08-23T23:38:09.176Z,22.90
2017-08-23T23:43:07.082Z,22.90
2017-08-23T23:45:35.389Z,22.90
2017-08-23T23:48:03.720Z,22.80
2017-08-23T23:50:32.003Z,22.80
2017-08-23T23:53:00.286Z,22.80
2017-08-23T23:55:28.630Z,22.70
2017-08-23T23:57:58.058Z,22.70
